createdAt,value
2023-01-21T00:02:09.112Z,29.70
2023-01-21T00:07:11.305Z,29.25
2023-01-21T00:12:14.480Z,28.92
2023-01-21T00:17:16.548Z,28.90
2023-01-21T00:22:18.745Z,29.52
2023-01-21T00:27:20.906Z,28.83
2023-01-21T00:32:23.253Z,31.08
2023-01-21T00:37:25.781Z,31.13
2023-01-21T00:42:28.667Z,30.38
2023-01-21T00:47:30.718Z,30.80
2023-01-21T00:52:32.755Z,30.17
2023-01-21T00:57:34.787Z,31.60
2023-01-21T01:02:36.858Z,33.22
2023-01-21T01:07:41.075Z,32.03
2023-01-21T01:12:43.324Z,30.85
2023-01-21T01:17:45.512Z,31.30
2023-01-21T01:22:47.518Z,33.63
2023-01-21T01:27:49.546Z,30.92
2023-01-21T01:32:51.726Z,32.15
2023-01-21T01:37:54.250Z,30.70
2023-01-21T01:42:56.528Z,31.77
2023-01-21T01:48:02.436Z,30.75
2023-01-21T01:53:04.532Z,32.45
2023-01-21T01:58:10.863Z,32.22
2023-01-21T02:03:31.983Z,32.05
2023-01-21T02:08:36.057Z,32.58
2023-01-21T02:13:38.396Z,32.38
2023-01-21T02:18:59.536Z,32.67
2023-01-21T02:24:20.457Z,30.65
2023-01-21T02:30:01.362Z,30.70
2023-01-21T02:35:26.291Z,30.87
2023-01-21T02:40:43.089Z,28.83
2023-01-21T02:46:25.893Z,27.70
2023-01-21T02:51:28.127Z,29.23
2023-01-21T02:56:30.270Z,29.33
2023-01-21T03:01:55.208Z,28.23
2023-01-21T03:07:13.322Z,28.67
2023-01-21T03:12:18.053Z,29.60
2023-01-21T03:17:31.659Z,29.63
2023-01-21T03:22:36.338Z,27.83
2023-01-21T03:27:41.015Z,28.23
2023-01-21T03:32:48.183Z,28.20
2023-01-21T03:37:56.740Z,25.85
2023-01-21T03:42:59.260Z,26.35
2023-01-21T03:48:11.605Z,27.60
2023-01-21T03:53:13.632Z,27.00
2023-01-21T03:58:15.661Z,28.52
2023-01-21T04:03:17.909Z,27.95
2023-01-21T04:08:20.083Z,27.05
2023-01-21T04:13:22.084Z,27.30
2023-01-21T04:18:24.370Z,28.30
2023-01-21T04:23:26.563Z,26.50
2023-01-21T04:28:28.676Z,27.85
2023-01-21T04:33:30.780Z,26.30
2023-01-21T04:38:33.175Z,28.55
2023-01-21T04:43:35.164Z,26.88
2023-01-21T04:48:37.335Z,26.63
2023-01-21T04:53:39.374Z,26.45
2023-01-21T04:58:41.381Z,26.88
2023-01-21T05:03:43.408Z,26.45
2023-01-21T05:08:45.655Z,25.77
2023-01-21T05:13:47.841Z,24.98
2023-01-21T05:18:49.925Z,25.83
2023-01-21T05:23:52.191Z,26.63
2023-01-21T05:28:54.295Z,25.88
2023-01-21T05:33:56.837Z,24.63
2023-01-21T05:38:58.996Z,25.25
2023-01-21T05:44:00.994Z,26.05
2023-01-21T05:49:03.461Z,26.48
2023-01-21T05:54:05.517Z,26.67
2023-01-21T05:59:09.104Z,25.35
2023-01-21T06:04:11.096Z,26.20
2023-01-21T06:09:13.266Z,28.13
2023-01-21T06:14:15.251Z,26.45
2023-01-21T06:19:18.082Z,27.52
2023-01-21T06:24:20.158Z,26.88
2023-01-21T06:29:22.202Z,26.55
2023-01-21T06:34:24.185Z,27.77
2023-01-21T06:39:26.253Z,26.55
2023-01-21T06:44:28.282Z,25.10
2023-01-21T06:49:30.269Z,26.42
2023-01-21T06:54:32.582Z,27.25
2023-01-21T06:59:34.564Z,28.25
2023-01-21T07:04:36.733Z,28.23
2023-01-21T07:09:38.804Z,27.80
2023-01-21T07:14:41.013Z,26.48
2023-01-21T07:19:43.075Z,26.35
2023-01-21T07:24:45.123Z,26.52
2023-01-21T07:29:47.327Z,25.85
2023-01-21T07:34:49.738Z,24.92
2023-01-21T07:39:54.498Z,27.40
2023-01-21T07:44:57.172Z,26.85
2023-01-21T07:50:04.685Z,27.23
2023-01-21T07:55:08.045Z,26.45
2023-01-21T08:00:10.880Z,27.20
2023-01-21T08:05:16.183Z,27.95
2023-01-21T08:10:19.529Z,28.88
2023-01-21T08:15:21.576Z,27.77
2023-01-21T08:20:23.990Z,27.38
2023-01-21T08:25:26.126Z,26.88
2023-01-21T08:30:28.220Z,28.77
2023-01-21T08:35:30.312Z,28.85
2023-01-21T08:40:32.374Z,28.60
2023-01-21T08:45:34.442Z,28.42
2023-01-21T08:50:36.493Z,30.58
2023-01-21T08:55:38.721Z,29.70
2023-01-21T09:00:41.855Z,29.35
2023-01-21T09:05:44.005Z,31.23
2023-01-21T09:11:01.345Z,30.38
2023-01-21T09:16:08.851Z,30.35
2023-01-21T09:21:12.136Z,30.00
2023-01-21T09:26:17.139Z,29.85
2023-01-21T09:31:21.647Z,28.95
2023-01-21T09:36:26.945Z,32.55
2023-01-21T09:41:46.045Z,32.22
2023-01-21T09:47:01.497Z,31.77
2023-01-21T09:52:22.618Z,33.70
2023-01-21T09:57:31.616Z,29.17
2023-01-21T10:02:36.359Z,34.15
2023-01-21T10:07:48.150Z,33.00
2023-01-21T10:13:14.539Z,34.65
2023-01-21T10:18:23.306Z,34.28
2023-01-21T10:23:33.727Z,32.90
2023-01-21T10:33:40.715Z,32.45
2023-01-21T10:38:51.644Z,33.67
2023-01-21T10:44:02.676Z,33.03
2023-01-21T10:49:27.490Z,31.67
2023-01-21T10:55:02.443Z,28.98
2023-01-21T11:00:22.051Z,27.90
2023-01-21T11:05:25.796Z,27.13
2023-01-21T11:10:28.257Z,28.25
2023-01-21T11:15:33.309Z,29.52
2023-01-21T11:20:43.150Z,27.88
2023-01-21T11:25:45.168Z,28.30
2023-01-21T11:30:51.410Z,28.33
2023-01-21T11:35:55.285Z,28.02
2023-01-21T11:41:04.918Z,26.60
2023-01-21T11:46:28.054Z,26.95
2023-01-21T11:51:30.093Z,26.40
2023-01-21T11:56:32.194Z,28.05
2023-01-21T12:01:34.342Z,29.58
2023-01-21T12:06:37.451Z,27.80
2023-01-21T12:11:39.620Z,27.30
2023-01-21T12:16:51.605Z,26.80
2023-01-21T12:22:16.430Z,26.42
2023-01-21T12:27:42.543Z,24.58
2023-01-21T12:32:57.026Z,23.48
2023-01-21T12:38:05.087Z,23.92
2023-01-21T12:43:16.283Z,24.58
2023-01-21T12:48:26.521Z,57.08
2023-01-21T12:53:34.612Z,51.53
2023-01-21T12:58:41.961Z,61.13
2023-01-21T13:04:06.736Z,48.72
2023-01-21T13:09:19.434Z,32.15
2023-01-21T13:14:40.945Z,29.85
2023-01-21T13:19:44.635Z,23.08
2023-01-21T13:24:57.109Z,22.30
2023-01-21T13:30:09.822Z,20.33
2023-01-21T13:35:11.810Z,21.23
2023-01-21T13:40:40.817Z,21.40
2023-01-21T13:45:58.998Z,20.05
2023-01-21T13:51:04.296Z,19.95
2023-01-21T13:56:42.633Z,20.48
2023-01-21T14:01:44.869Z,25.90
2023-01-21T14:07:08.220Z,25.77
2023-01-21T14:12:47.860Z,25.00
2023-01-21T14:18:11.820Z,25.48
2023-01-21T14:23:20.264Z,25.25
2023-01-21T14:28:42.084Z,25.48
2023-01-21T14:33:54.443Z,25.60
2023-01-21T14:39:23.413Z,26.65
2023-01-21T14:44:36.315Z,23.92
2023-01-21T14:49:40.988Z,25.30
2023-01-21T14:54:45.589Z,23.10
2023-01-21T14:59:48.940Z,23.02
2023-01-21T15:04:59.943Z,24.50
2023-01-21T15:10:19.493Z,24.48
2023-01-21T15:15:36.334Z,22.83
2023-01-21T15:20:50.406Z,24.50
2023-01-21T15:26:07.494Z,27.23
2023-01-21T15:31:21.634Z,25.67
2023-01-21T15:36:32.655Z,27.90
2023-01-21T15:42:09.216Z,27.30
2023-01-21T15:47:31.111Z,28.48
2023-01-21T15:52:57.638Z,28.48
2023-01-21T15:58:16.919Z,29.35
2023-01-21T16:03:25.050Z,27.15
2023-01-21T16:08:35.488Z,29.50
2023-01-21T16:14:23.044Z,26.50
2023-01-21T16:19:29.612Z,26.10
2023-01-21T16:24:32.581Z,28.23
2023-01-21T16:29:38.504Z,28.00
2023-01-21T16:34:42.291Z,28.77
2023-01-21T16:39:45.413Z,28.95
2023-01-21T16:44:47.468Z,28.23
2023-01-21T16:49:49.610Z,27.67
2023-01-21T16:54:54.187Z,29.30
2023-01-21T16:59:58.009Z,30.00
2023-01-21T17:05:05.075Z,29.52
2023-01-21T17:11:02.378Z,29.80
2023-01-21T17:16:05.512Z,30.50
2023-01-21T17:21:14.815Z,29.95
2023-01-21T17:26:24.900Z,28.80
2023-01-21T17:31:29.878Z,27.65
2023-01-21T17:36:34.685Z,28.83
2023-01-21T17:41:40.866Z,27.70
2023-01-21T17:46:47.756Z,28.90
2023-01-21T17:51:52.195Z,27.13
2023-01-21T17:56:59.670Z,27.77
2023-01-21T18:02:02.938Z,26.27
2023-01-21T18:07:26.675Z,25.70
2023-01-21T18:12:28.727Z,24.48
2023-01-21T18:17:30.778Z,25.17
2023-01-21T18:22:33.136Z,27.40
2023-01-21T18:27:35.697Z,24.85
2023-01-21T18:32:38.089Z,23.92
2023-01-21T18:37:40.188Z,23.60
2023-01-21T18:42:42.243Z,23.35
2023-01-21T18:47:45.411Z,23.63
2023-01-21T18:52:47.691Z,57.08
2023-01-21T18:57:50.528Z,30.45
2023-01-21T19:02:53.768Z,25.38
2023-01-21T19:07:56.957Z,24.83
2023-01-21T19:12:59.605Z,25.55
2023-01-21T19:18:02.003Z,26.08
2023-01-21T19:23:09.722Z,27.67
2023-01-21T19:28:13.476Z,26.52
2023-01-21T19:33:15.716Z,28.90
2023-01-21T19:38:20.459Z,26.10
2023-01-21T19:43:23.153Z,25.02
2023-01-21T19:48:27.920Z,26.38
2023-01-21T19:53:29.910Z,22.40
2023-01-21T19:58:32.516Z,23.08
2023-01-21T20:03:34.503Z,21.10
2023-01-21T20:08:36.783Z,20.05
2023-01-21T20:13:39.324Z,22.83
2023-01-21T20:18:42.321Z,19.23
2023-01-21T20:23:44.355Z,21.73
2023-01-21T20:28:51.019Z,22.48
2023-01-21T20:33:53.182Z,20.45
2023-01-21T20:38:55.880Z,20.95
2023-01-21T20:43:58.161Z,23.02
2023-01-21T20:49:01.410Z,22.77
2023-01-21T20:54:03.856Z,22.83
2023-01-21T20:59:06.057Z,21.42
2023-01-21T21:04:08.200Z,21.15
2023-01-21T21:09:10.270Z,20.70
2023-01-21T21:14:13.108Z,21.42
2023-01-21T21:19:15.127Z,21.33
2023-01-21T21:24:19.719Z,20.40
2023-01-21T21:29:21.798Z,24.30
2023-01-21T21:34:26.014Z,25.15
2023-01-21T21:39:28.057Z,23.10
2023-01-21T21:44:30.641Z,22.65
2023-01-21T21:49:32.833Z,25.23
2023-01-21T21:54:34.866Z,24.02
2023-01-21T21:59:36.903Z,23.27
2023-01-21T22:04:39.237Z,23.15
2023-01-21T22:09:41.289Z,24.20
2023-01-21T22:14:43.377Z,25.83
2023-01-21T22:19:45.385Z,28.73
2023-01-21T22:24:47.428Z,26.55
2023-01-21T22:29:49.467Z,23.88
2023-01-21T22:34:51.520Z,25.67
2023-01-21T22:39:53.594Z,26.67
2023-01-21T22:44:55.694Z,25.73
2023-01-21T22:49:58.166Z,24.13
2023-01-21T22:55:00.243Z,24.85
2023-01-21T23:00:02.654Z,24.92
2023-01-21T23:05:05.084Z,22.52
2023-01-21T23:10:07.656Z,21.38
2023-01-21T23:15:10.007Z,20.80
2023-01-21T23:20:12.349Z,20.75
2023-01-21T23:25:14.814Z,21.90
2023-01-21T23:30:17.466Z,22.58
2023-01-21T23:35:19.699Z,21.13
2023-01-21T23:40:21.890Z,21.75
2023-01-21T23:45:23.961Z,21.02
2023-01-21T23:50:26.028Z,22.73
2023-01-21T23:55:28.093Z,24.00
